Latest Weather Observations for Lihou Reef Lighthouse

IDQ60801

Issued at 11:32 pm EST Monday 25 January 2021 (issued every 10 minutes, with the page automatically refreshed every 10 minutes)

About weather observations | Map of weather stations | Latest weather observations for QLD | Other Formats
Station Details ID: 200880 Name: LIHOU REEF LIGHTHOUSE Lat: -17.13 Lon: 152.15 Height: 10.26 m
Data from the previous 72 hours. | See also: Recent months at Lihou Reef Lighthouse
Date/Time
EST
Temp
°C
App
Temp
°C
Dew
Point
°C
Rel
Hum
%
Delta-T
°C
Wind Press
QNH
hPa
Press
MSL
hPa
Rain since
9am
mm
Dir  Spd
km/h
Gust
km/h
Spd
kts
Gust
kts
25/11:30pm 28.0 - - - - SE 11 13 6 7 1005.9 1005.8 -
25/11:00pm 27.9 - - - - ESE 13 15 7 8 1006.2 1006.1 -
25/10:30pm 28.1 - - - - SE 13 15 7 8 1006.3 1006.2 -
25/10:00pm 28.2 - - - - SE 13 17 7 9 1006.4 1006.3 -
25/09:30pm 28.1 - - - - ESE 17 20 9 11 1006.2 1006.1 -
25/09:00pm 28.1 - - - - ESE 15 17 8 9 1005.8 1005.7 -
25/08:30pm 28.1 - - - - ESE 17 20 9 11 1005.6 1005.5 -
25/08:00pm 28.0 - - - - SE 19 22 10 12 1005.5 1005.4 -
25/07:30pm 28.1 - - - - SE 19 20 10 11 1005.4 1005.3 -
25/07:00pm 28.1 - - - - SE 19 22 10 12 1005.1 1005.0 -
25/06:30pm 28.1 - - - - SE 20 26 11 14 1004.8 1004.7 -
25/06:00pm 28.3 - - - - SE 20 24 11 13 1004.5 1004.4 -
25/05:30pm 28.4 - - - - SE 20 26 11 14 1004.2 1004.1 -
25/05:00pm 28.6 - - - - SE 20 24 11 13 1003.8 1003.7 -
25/04:30pm 28.5 - - - - SSE 20 26 11 14 1003.6 1003.5 -
25/04:00pm 28.5 - - - - SE 20 24 11 13 1003.6 1003.5 -
25/03:30pm 28.3 - - - - SE 22 26 12 14 1003.6 1003.5 -
25/03:00pm 28.4 - - - - SE 20 22 11 12 1003.8 1003.7 -
25/02:30pm 28.3 - - - - SSE 19 22 10 12 1004.2 1004.1 -
25/02:00pm 28.2 - - - - SSE 17 20 9 11 1004.4 1004.3 -
25/01:30pm 28.1 - - - - SE 17 19 9 10 1004.7 1004.6 -
25/01:00pm 28.3 - - - - SSE 15 19 8 10 1005.2 1005.1 -
25/12:30pm 28.5 - - - - SE 13 17 7 9 1005.4 1005.3 -
25/12:00pm 28.8 - - - - ESE 9 11 5 6 1005.8 1005.7 -
25/11:30am 28.7 - - - - ESE 11 15 6 8 1006.0 1005.9 -
25/11:00am 28.6 - - - - ESE 11 13 6 7 1006.2 1006.1 -
25/10:30am 28.5 - - - - ESE 13 15 7 8 1006.6 1006.5 -
25/10:00am 28.5 - - - - ESE 15 19 8 10 1006.9 1006.8 -
25/09:30am 28.2 - - - - SE 19 22 10 12 1007.1 1007.0 -
25/09:00am 28.5 - - - - ESE 17 19 9 10 1007.0 1006.9 -
25/08:30am 28.4 - - - - ESE 19 22 10 12 1006.7 1006.6 -
25/08:00am 28.3 - - - - ESE 13 15 7 8 1006.7 1006.6 -
25/07:30am 27.2 - - - - ESE 19 24 10 13 1006.7 1006.6 -
25/07:00am 27.8 - - - - ESE 17 20 9 11 1006.6 1006.5 -
25/06:30am 27.6 - - - - ESE 15 19 8 10 1006.2 1006.1 -
25/06:00am 26.5 - - - - SE 9 15 5 8 1006.1 1006.0 -
25/05:30am 25.5 - - - - ESE 15 22 8 12 1005.7 1005.6 -
25/05:11am 25.7 - - - - E 24 43 13 23 1005.4 1005.3 -
25/05:00am 27.9 - - - - ESE 15 17 8 9 1005.3 1005.2 -
25/04:30am 27.9 - - - - ESE 15 19 8 10 1005.3 1005.2 -
25/04:00am 27.6 - - - - ESE 17 20 9 11 1005.0 1004.9 -
25/03:30am 27.8 - - - - ESE 17 19 9 10 1004.9 1004.8 -
25/03:00am 28.0 - - - - ESE 19 20 10 11 1005.1 1005.0 -
25/02:30am 27.8 - - - - ESE 17 19 9 10 1005.1 1005.0 -
25/02:00am 28.0 - - - - ESE 17 20 9 11 1005.4 1005.3 -
25/01:30am 28.0 - - - - ESE 17 22 9 12 1005.6 1005.5 -
25/01:00am 28.0 - - - - ESE 15 19 8 10 1006.0 1005.9 -
25/12:30am 28.3 - - - - ESE 17 19 9 10 1006.2 1006.1 -
25/12:00am 28.3 - - - - ESE 20 26 11 14 1006.3 1006.2 -
 
Date/Time
EST
Temp
°C
App
Temp
°C
Dew
Point
°C
Rel
Hum
%
Delta-T
°C
Wind Press
QNH
hPa
Press
MSL
hPa
Rain since
9am
mm
Dir  Spd
km/h
Gust
km/h
Spd
kts
Gust
kts
24/11:30pm 28.4 - - - - ESE 20 22 11 12 1007.0 1006.9 -
24/11:00pm 28.3 - - - - E 22 26 12 14 1007.1 1007.0 -
24/10:30pm 28.1 - - - - ESE 22 28 12 15 1007.6 1007.5 -
24/10:00pm 28.0 - - - - ESE 24 28 13 15 1007.6 1007.5 -
24/09:30pm 27.7 - - - - ESE 26 32 14 17 1007.6 1007.5 -
24/09:00pm 27.8 - - - - SE 26 32 14 17 1007.1 1007.0 -
24/08:30pm 27.9 - - - - ESE 24 30 13 16 1007.0 1006.9 -
24/08:00pm 28.0 - - - - ESE 24 28 13 15 1006.8 1006.7 -
24/07:30pm 27.9 - - - - ESE 24 28 13 15 1006.8 1006.7 -
24/07:00pm 28.0 - - - - ESE 24 28 13 15 1006.5 1006.4 -
24/06:30pm 27.9 - - - - ESE 22 24 12 13 1006.6 1006.5 -
24/06:00pm 28.2 - - - - ESE 20 24 11 13 1006.2 1006.1 -
24/05:30pm 28.0 - - - - ESE 19 24 10 13 1006.1 1006.0 -
24/05:00pm 28.1 - - - - ESE 20 26 11 14 1005.7 1005.6 -
24/04:30pm 28.1 - - - - ESE 22 24 12 13 1005.7 1005.6 -
24/04:00pm 28.0 - - - - ESE 20 24 11 13 1005.6 1005.5 -
24/03:30pm 27.9 - - - - SE 20 24 11 13 1005.3 1005.2 -
24/03:00pm 27.9 - - - - SE 20 26 11 14 1005.4 1005.3 -
24/02:30pm 28.0 - - - - SE 20 24 11 13 1005.8 1005.7 -
24/02:00pm 28.1 - - - - ESE 20 24 11 13 1006.0 1005.9 -
24/01:30pm 27.9 - - - - ESE 22 26 12 14 1006.2 1006.1 -
24/01:00pm 28.1 - - - - ESE 17 20 9 11 1006.7 1006.6 -
24/12:30pm 28.0 - - - - ESE 19 22 10 12 1007.0 1006.9 -
24/12:00pm 27.6 - - - - SE 19 24 10 13 1007.3 1007.2 -
24/11:30am 27.2 - - - - SE 22 26 12 14 1007.4 1007.3 -
24/11:00am 27.2 - - - - SE 22 24 12 13 1007.9 1007.8 -
24/10:30am 27.1 - - - - SE 20 24 11 13 1008.5 1008.4 -
24/10:00am 26.9 - - - - SE 19 22 10 12 1008.7 1008.6 -
24/09:30am 27.2 - - - - SE 15 19 8 10 1009.0 1008.9 -
24/09:00am 27.4 - - - - ESE 13 19 7 10 1008.8 1008.7 -
24/08:30am 27.1 - - - - ESE 11 15 6 8 1008.7 1008.6 -
24/08:00am 26.8 - - - - ESE 15 19 8 10 1008.3 1008.2 -
24/07:30am 26.5 - - - - ESE 20 24 11 13 1007.8 1007.7 -
24/07:00am 26.2 - - - - E 20 26 11 14 1007.9 1007.8 -
24/06:30am 26.0 - - - - E 17 20 9 11 1007.6 1007.5 -
24/06:00am 25.2 - - - - ESE 11 15 6 8 1007.9 1007.8 -
24/05:30am 24.9 - - - - ESE 9 11 5 6 1007.7 1007.6 -
24/05:00am 25.0 - - - - ENE 7 11 4 6 1007.6 1007.5 -
24/04:30am 24.8 - - - - E 4 6 2 3 1007.6 1007.5 -
24/04:00am 24.9 - - - - E 6 7 3 4 1007.2 1007.1 -
24/03:30am 24.4 - - - - E 4 7 2 4 1007.2 1007.1 -
24/03:00am 24.3 - - - - E 4 7 2 4 1007.3 1007.2 -
24/02:30am 23.7 - - - - E 17 19 9 10 1007.7 1007.6 -
24/02:00am 24.5 - - - - ESE 24 28 13 15 1007.9 1007.8 -
24/01:30am 24.3 - - - - ESE 26 32 14 17 1007.9 1007.8 -
24/01:00am 24.9 - - - - ESE 24 28 13 15 1008.0 1007.9 -
24/12:30am 24.3 - - - - SSE 17 22 9 12 1008.4 1008.3 -
 
Date/Time
EST
Temp
°C
App
Temp
°C
Dew
Point
°C
Rel
Hum
%
Delta-T
°C
Wind Press
QNH
hPa
Press
MSL
hPa
Rain since
9am
mm
Dir  Spd
km/h
Gust
km/h
Spd
kts
Gust
kts
23/11:00pm 24.3 - - - - ESE 22 28 12 15 1009.5 1009.4 -
23/10:30pm 24.3 - - - - E 41 50 22 27 1009.4 1009.3 -
23/10:00pm 26.3 - - - - E 43 - 23 - - 1008.9 -
23/11:00am 28.0 - - - - SE 26 30 14 16 1008.3 1008.2 -
23/10:30am 27.9 - - - - SE 26 30 14 16 1008.4 1008.3 -
23/10:00am 28.0 - - - - ESE 28 35 15 19 1008.3 1008.2 -
23/09:30am 28.0 - - - - SE 26 30 14 16 1008.1 1008.0 -
23/09:00am 27.9 - - - - SE 26 30 14 16 1008.2 1008.1 -
23/08:30am 27.6 - - - - SE 28 33 15 18 1008.1 1008.0 -
23/08:00am 27.4 - - - - SE 32 39 17 21 1007.6 1007.5 -
23/07:30am 27.7 - - - - SE 32 37 17 20 1007.3 1007.2 -
23/07:00am 27.4 - - - - SSE 33 37 18 20 1007.0 1006.9 -
23/06:30am 27.4 - - - - SSE 33 41 18 22 1006.8 1006.7 -
23/06:00am 27.4 - - - - SSE 32 35 17 19 1006.5 1006.4 -
23/05:30am 27.4 - - - - SSE 30 37 16 20 1006.4 1006.3 -
23/05:00am 27.4 - - - - SSE 26 32 14 17 1005.9 1005.8 -
23/04:30am 27.5 - - - - SSE 26 32 14 17 1006.1 1006.0 -
23/04:00am 27.4 - - - - SE 26 30 14 16 1006.1 1006.0 -
23/03:30am 27.5 - - - - SSE 24 28 13 15 1006.6 1006.5 -
23/03:00am 27.6 - - - - SE 24 28 13 15 1006.9 1006.8 -
23/02:30am 27.6 - - - - SE 24 28 13 15 1007.2 1007.1 -
23/02:00am 27.5 - - - - SE 22 28 12 15 1007.2 1007.1 -
23/01:30am 27.7 - - - - SE 24 28 13 15 1007.3 1007.2 -
23/01:00am 27.7 - - - - SE 26 32 14 17 1007.6 1007.5 -
23/12:30am 27.7 - - - - SE 26 30 14 16 1007.7 1007.6 -
23/12:00am 27.7 - - - - SE 26 30 14 16 1007.9 1007.8 -

Other formats

Comma delimited format used in spreadsheet applications
http://www.bom.gov.au/fwo/IDQ60801/IDQ60801.94293.axf

JavaScript Object Notation format (JSON) in row-major order
http://www.bom.gov.au/fwo/IDQ60801/IDQ60801.94293.json

Data quality

Most of these data are generated automatically and are frequently updated. Quality checks on data are not normally performed. It is possible for incorrect values to appear. Refer to information at About Latest Weather Observations and please check the disclaimer before using these data.